Terminal Aerodrome Forecast
Issued by NWS Caribou, ME

Home | Current Version | Previous Version | Text Only | Print | Product List | Glossary On
Versions: 1 2 3 4 5 6 7 8 9 10 11 12 13 14 15 16 17 18 19 20 21 22
000
FTUS41 KCAR 222100 AAA
TAFBGR
TAF AMD
KBGR 222105Z 2221/2318 04015G26KT 6SM -RA BKN020 OVC050
     FM222200 04014G21KT 4SM -RA SCT008 OVC015=

USA.gov is the U.S. government's official web portal to all federal, state and local government web resources and services.